sensor_id;sensor_type;location;lat;lon;timestamp;P1;durP1;ratioP1;P2;durP2;ratioP2
35442;SDS011;21561;55.654;37.592;2023-02-02T00:02:06;33.85;;;13.63;;
35442;SDS011;21561;55.654;37.592;2023-02-02T00:04:34;35.58;;;13.25;;
35442;SDS011;21561;55.654;37.592;2023-02-02T00:07:02;30.95;;;12.95;;
35442;SDS011;21561;55.654;37.592;2023-02-02T00:09:31;29.08;;;12.73;;
35442;SDS011;21561;55.654;37.592;2023-02-02T00:11:58;28.83;;;12.68;;
35442;SDS011;21561;55.654;37.592;2023-02-02T00:14:26;36.45;;;13.38;;
35442;SDS011;21561;55.654;37.592;2023-02-02T00:16:54;33.05;;;13.00;;
35442;SDS011;21561;55.654;37.592;2023-02-02T00:19:23;28.15;;;11.43;;
35442;SDS011;21561;55.654;37.592;2023-02-02T00:21:52;33.60;;;13.60;;
35442;SDS011;21561;55.654;37.592;2023-02-02T00:24:20;33.53;;;14.05;;
35442;SDS011;21561;55.654;37.592;2023-02-02T00:26:48;33.22;;;11.70;;
35442;SDS011;21561;55.654;37.592;2023-02-02T00:29:24;32.38;;;12.43;;
35442;SDS011;21561;55.654;37.592;2023-02-02T00:31:53;30.02;;;12.25;;
35442;SDS011;21561;55.654;37.592;2023-02-02T00:34:20;30.17;;;12.48;;
35442;SDS011;21561;55.654;37.592;2023-02-02T00:36:48;32.38;;;13.20;;
35442;SDS011;21561;55.654;37.592;2023-02-02T00:39:17;33.97;;;12.75;;
35442;SDS011;21561;55.654;37.592;2023-02-02T00:41:46;31.83;;;12.88;;
35442;SDS011;21561;55.654;37.592;2023-02-02T00:44:13;32.70;;;13.65;;
35442;SDS011;21561;55.654;37.592;2023-02-02T00:46:59;32.03;;;11.93;;
35442;SDS011;21561;55.654;37.592;2023-02-02T00:49:26;25.25;;;9.95;;
35442;SDS011;21561;55.654;37.592;2023-02-02T00:51:53;28.50;;;11.15;;
35442;SDS011;21561;55.654;37.592;2023-02-02T00:54:20;31.25;;;12.80;;
35442;SDS011;21561;55.654;37.592;2023-02-02T00:56:46;31.45;;;11.40;;
35442;SDS011;21561;55.654;37.592;2023-02-02T00:59:13;28.45;;;11.32;;
35442;SDS011;21561;55.654;37.592;2023-02-02T01:01:40;28.75;;;11.70;;
35442;SDS011;21561;55.654;37.592;2023-02-02T01:04:07;26.30;;;10.60;;
35442;SDS011;21561;55.654;37.592;2023-02-02T01:06:34;26.70;;;10.68;;
35442;SDS011;21561;55.654;37.592;2023-02-02T01:09:01;27.98;;;11.70;;
35442;SDS011;21561;55.654;37.592;2023-02-02T01:11:28;29.65;;;11.05;;
35442;SDS011;21561;55.654;37.592;2023-02-02T01:13:58;25.27;;;9.82;;
35442;SDS011;21561;55.654;37.592;2023-02-02T01:16:25;26.58;;;10.10;;
35442;SDS011;21561;55.654;37.592;2023-02-02T01:18:52;27.63;;;11.40;;
35442;SDS011;21561;55.654;37.592;2023-02-02T01:21:19;29.85;;;10.82;;
35442;SDS011;21561;55.654;37.592;2023-02-02T01:23:46;30.23;;;11.85;;
35442;SDS011;21561;55.654;37.592;2023-02-02T01:26:14;30.48;;;11.98;;
35442;SDS011;21561;55.654;37.592;2023-02-02T01:28:41;29.42;;;11.60;;
35442;SDS011;21561;55.654;37.592;2023-02-02T01:31:10;31.20;;;11.63;;
35442;SDS011;21561;55.654;37.592;2023-02-02T01:33:39;30.58;;;11.80;;
35442;SDS011;21561;55.654;37.592;2023-02-02T01:36:07;28.30;;;11.52;;
35442;SDS011;21561;55.654;37.592;2023-02-02T01:38:37;28.35;;;11.38;;
35442;SDS011;21561;55.654;37.592;2023-02-02T01:41:05;30.48;;;11.10;;
35442;SDS011;21561;55.654;37.592;2023-02-02T01:46:15;29.48;;;12.18;;
35442;SDS011;21561;55.654;37.592;2023-02-02T01:48:48;30.75;;;11.68;;
35442;SDS011;21561;55.654;37.592;2023-02-02T01:51:24;29.17;;;11.25;;
35442;SDS011;21561;55.654;37.592;2023-02-02T01:53:56;26.38;;;11.18;;
35442;SDS011;21561;55.654;37.592;2023-02-02T01:56:29;29.23;;;11.13;;
35442;SDS011;21561;55.654;37.592;2023-02-02T01:58:59;29.90;;;11.27;;
35442;SDS011;21561;55.654;37.592;2023-02-02T02:01:27;29.75;;;11.02;;
35442;SDS011;21561;55.654;37.592;2023-02-02T02:03:54;30.60;;;11.27;;
35442;SDS011;21561;55.654;37.592;2023-02-02T02:06:21;25.80;;;9.88;;
35442;SDS011;21561;55.654;37.592;2023-02-02T02:08:52;29.70;;;11.60;;
35442;SDS011;21561;55.654;37.592;2023-02-02T02:11:23;29.90;;;12.27;;
35442;SDS011;21561;55.654;37.592;2023-02-02T02:13:51;30.38;;;12.10;;
35442;SDS011;21561;55.654;37.592;2023-02-02T02:37:35;28.92;;;10.77;;
35442;SDS011;21561;55.654;37.592;2023-02-02T02:42:43;29.77;;;10.70;;
35442;SDS011;21561;55.654;37.592;2023-02-02T02:45:14;27.38;;;10.27;;
35442;SDS011;21561;55.654;37.592;2023-02-02T02:47:43;29.70;;;10.60;;
35442;SDS011;21561;55.654;37.592;2023-02-02T02:50:10;30.73;;;10.93;;
35442;SDS011;21561;55.654;37.592;2023-02-02T02:52:37;27.17;;;9.43;;
35442;SDS011;21561;55.654;37.592;2023-02-02T02:55:05;26.10;;;9.55;;
35442;SDS011;21561;55.654;37.592;2023-02-02T02:57:51;28.40;;;10.05;;
35442;SDS011;21561;55.654;37.592;2023-02-02T03:05:48;27.30;;;10.27;;
35442;SDS011;21561;55.654;37.592;2023-02-02T03:08:32;29.42;;;9.55;;
35442;SDS011;21561;55.654;37.592;2023-02-02T03:11:06;27.63;;;10.32;;
35442;SDS011;21561;55.654;37.592;2023-02-02T03:13:36;27.52;;;10.60;;
35442;SDS011;21561;55.654;37.592;2023-02-02T03:16:03;26.63;;;9.85;;
35442;SDS011;21561;55.654;37.592;2023-02-02T03:18:31;25.52;;;9.98;;
35442;SDS011;21561;55.654;37.592;2023-02-02T03:20:59;25.05;;;9.75;;
35442;SDS011;21561;55.654;37.592;2023-02-02T03:23:26;27.15;;;9.95;;
35442;SDS011;21561;55.654;37.592;2023-02-02T03:25:53;27.13;;;9.23;;
35442;SDS011;21561;55.654;37.592;2023-02-02T03:28:22;26.00;;;9.18;;
35442;SDS011;21561;55.654;37.592;2023-02-02T03:30:49;23.90;;;8.88;;
35442;SDS011;21561;55.654;37.592;2023-02-02T03:33:18;26.25;;;9.50;;
35442;SDS011;21561;55.654;37.592;2023-02-02T03:35:46;28.42;;;9.80;;
35442;SDS011;21561;55.654;37.592;2023-02-02T03:38:13;27.05;;;10.23;;
35442;SDS011;21561;55.654;37.592;2023-02-02T03:40:39;27.60;;;10.18;;
35442;SDS011;21561;55.654;37.592;2023-02-02T03:43:06;27.95;;;10.73;;
35442;SDS011;21561;55.654;37.592;2023-02-02T03:45:33;25.67;;;9.80;;
35442;SDS011;21561;55.654;37.592;2023-02-02T03:48:02;25.45;;;9.40;;
35442;SDS011;21561;55.654;37.592;2023-02-02T03:50:31;26.23;;;9.10;;
35442;SDS011;21561;55.654;37.592;2023-02-02T03:52:58;26.17;;;9.05;;
35442;SDS011;21561;55.654;37.592;2023-02-02T03:55:25;25.30;;;9.18;;
35442;SDS011;21561;55.654;37.592;2023-02-02T03:57:52;26.48;;;10.30;;
35442;SDS011;21561;55.654;37.592;2023-02-02T04:00:19;26.60;;;10.07;;
35442;SDS011;21561;55.654;37.592;2023-02-02T04:02:46;23.80;;;9.70;;
35442;SDS011;21561;55.654;37.592;2023-02-02T04:05:13;25.55;;;9.73;;
35442;SDS011;21561;55.654;37.592;2023-02-02T04:07:40;24.27;;;8.90;;
35442;SDS011;21561;55.654;37.592;2023-02-02T04:10:07;28.05;;;9.85;;
35442;SDS011;21561;55.654;37.592;2023-02-02T04:12:35;26.25;;;10.02;;
35442;SDS011;21561;55.654;37.592;2023-02-02T04:15:02;28.15;;;10.60;;
35442;SDS011;21561;55.654;37.592;2023-02-02T04:17:29;27.75;;;10.77;;
35442;SDS011;21561;55.654;37.592;2023-02-02T04:19:56;28.42;;;10.73;;
35442;SDS011;21561;55.654;37.592;2023-02-02T04:22:24;28.75;;;11.77;;
35442;SDS011;21561;55.654;37.592;2023-02-02T04:24:51;32.30;;;11.90;;
35442;SDS011;21561;55.654;37.592;2023-02-02T04:27:19;30.80;;;11.68;;
35442;SDS011;21561;55.654;37.592;2023-02-02T04:29:46;30.13;;;10.90;;
35442;SDS011;21561;55.654;37.592;2023-02-02T04:32:16;31.38;;;10.85;;
35442;SDS011;21561;55.654;37.592;2023-02-02T04:34:43;27.98;;;11.57;;
35442;SDS011;21561;55.654;37.592;2023-02-02T04:37:10;33.72;;;12.73;;
35442;SDS011;21561;55.654;37.592;2023-02-02T04:39:37;29.80;;;12.43;;
35442;SDS011;21561;55.654;37.592;2023-02-02T04:42:04;32.08;;;12.30;;
35442;SDS011;21561;55.654;37.592;2023-02-02T04:44:31;32.22;;;11.98;;
35442;SDS011;21561;55.654;37.592;2023-02-02T04:46:58;34.40;;;13.20;;
35442;SDS011;21561;55.654;37.592;2023-02-02T04:49:24;33.58;;;13.35;;
35442;SDS011;21561;55.654;37.592;2023-02-02T04:51:51;37.10;;;13.45;;
35442;SDS011;21561;55.654;37.592;2023-02-02T04:54:18;35.10;;;13.75;;
35442;SDS011;21561;55.654;37.592;2023-02-02T04:56:45;36.35;;;13.27;;
35442;SDS011;21561;55.654;37.592;2023-02-02T04:59:11;37.30;;;14.90;;
35442;SDS011;21561;55.654;37.592;2023-02-02T05:01:38;34.88;;;13.77;;
35442;SDS011;21561;55.654;37.592;2023-02-02T05:04:05;36.42;;;12.85;;
35442;SDS011;21561;55.654;37.592;2023-02-02T05:06:32;37.85;;;14.90;;
35442;SDS011;21561;55.654;37.592;2023-02-02T05:08:59;37.78;;;14.43;;
35442;SDS011;21561;55.654;37.592;2023-02-02T05:11:26;32.65;;;13.55;;
35442;SDS011;21561;55.654;37.592;2023-02-02T05:13:53;35.97;;;14.88;;
35442;SDS011;21561;55.654;37.592;2023-02-02T05:16:20;38.53;;;15.50;;
35442;SDS011;21561;55.654;37.592;2023-02-02T05:18:49;35.53;;;14.30;;
35442;SDS011;21561;55.654;37.592;2023-02-02T05:21:21;38.08;;;14.43;;
35442;SDS011;21561;55.654;37.592;2023-02-02T05:23:48;35.70;;;13.27;;
35442;SDS011;21561;55.654;37.592;2023-02-02T05:26:16;37.60;;;14.88;;
35442;SDS011;21561;55.654;37.592;2023-02-02T05:28:45;35.78;;;14.80;;
35442;SDS011;21561;55.654;37.592;2023-02-02T05:31:11;35.45;;;15.18;;
35442;SDS011;21561;55.654;37.592;2023-02-02T05:33:38;39.00;;;16.25;;
35442;SDS011;21561;55.654;37.592;2023-02-02T05:36:05;40.50;;;16.08;;
35442;SDS011;21561;55.654;37.592;2023-02-02T05:38:33;37.33;;;14.63;;
35442;SDS011;21561;55.654;37.592;2023-02-02T05:41:00;39.33;;;15.10;;
35442;SDS011;21561;55.654;37.592;2023-02-02T05:43:28;34.75;;;14.20;;
35442;SDS011;21561;55.654;37.592;2023-02-02T05:45:56;34.58;;;14.00;;
35442;SDS011;21561;55.654;37.592;2023-02-02T05:48:24;32.67;;;12.93;;
35442;SDS011;21561;55.654;37.592;2023-02-02T05:50:58;34.33;;;13.63;;
35442;SDS011;21561;55.654;37.592;2023-02-02T05:53:37;35.15;;;14.73;;
35442;SDS011;21561;55.654;37.592;2023-02-02T05:56:04;36.20;;;14.88;;
35442;SDS011;21561;55.654;37.592;2023-02-02T05:58:31;36.33;;;14.68;;
35442;SDS011;21561;55.654;37.592;2023-02-02T06:00:58;33.47;;;13.90;;
35442;SDS011;21561;55.654;37.592;2023-02-02T06:03:25;34.38;;;13.95;;
35442;SDS011;21561;55.654;37.592;2023-02-02T06:05:52;35.30;;;14.48;;
35442;SDS011;21561;55.654;37.592;2023-02-02T06:08:19;33.58;;;13.40;;
35442;SDS011;21561;55.654;37.592;2023-02-02T06:10:45;35.45;;;14.25;;
35442;SDS011;21561;55.654;37.592;2023-02-02T06:13:12;36.45;;;14.05;;
35442;SDS011;21561;55.654;37.592;2023-02-02T06:15:42;32.58;;;13.45;;
35442;SDS011;21561;55.654;37.592;2023-02-02T06:18:20;33.10;;;13.63;;
35442;SDS011;21561;55.654;37.592;2023-02-02T06:20:47;33.08;;;13.77;;
35442;SDS011;21561;55.654;37.592;2023-02-02T06:23:14;33.60;;;13.38;;
35442;SDS011;21561;55.654;37.592;2023-02-02T06:25:41;32.22;;;13.75;;
35442;SDS011;21561;55.654;37.592;2023-02-02T06:28:08;36.40;;;14.02;;
35442;SDS011;21561;55.654;37.592;2023-02-02T06:30:35;32.22;;;13.48;;
35442;SDS011;21561;55.654;37.592;2023-02-02T06:33:01;36.42;;;14.82;;
35442;SDS011;21561;55.654;37.592;2023-02-02T06:35:28;33.53;;;14.27;;
35442;SDS011;21561;55.654;37.592;2023-02-02T06:37:56;35.15;;;14.05;;
35442;SDS011;21561;55.654;37.592;2023-02-02T06:40:23;32.33;;;12.65;;
35442;SDS011;21561;55.654;37.592;2023-02-02T06:42:56;33.08;;;13.32;;
35442;SDS011;21561;55.654;37.592;2023-02-02T06:45:24;33.05;;;13.43;;
35442;SDS011;21561;55.654;37.592;2023-02-02T06:47:52;32.00;;;13.48;;
35442;SDS011;21561;55.654;37.592;2023-02-02T06:50:20;33.80;;;14.05;;
35442;SDS011;21561;55.654;37.592;2023-02-02T06:52:47;32.83;;;14.00;;
35442;SDS011;21561;55.654;37.592;2023-02-02T06:55:18;33.90;;;13.82;;
35442;SDS011;21561;55.654;37.592;2023-02-02T06:57:45;33.63;;;13.82;;
35442;SDS011;21561;55.654;37.592;2023-02-02T07:00:12;34.75;;;14.02;;
35442;SDS011;21561;55.654;37.592;2023-02-02T07:02:43;35.95;;;14.40;;
35442;SDS011;21561;55.654;37.592;2023-02-02T07:05:12;35.08;;;14.35;;
35442;SDS011;21561;55.654;37.592;2023-02-02T07:07:41;33.25;;;13.63;;
35442;SDS011;21561;55.654;37.592;2023-02-02T07:10:07;44.53;;;15.15;;
35442;SDS011;21561;55.654;37.592;2023-02-02T07:12:54;35.85;;;13.68;;
35442;SDS011;21561;55.654;37.592;2023-02-02T07:15:21;31.88;;;13.73;;
35442;SDS011;21561;55.654;37.592;2023-02-02T07:17:49;34.03;;;12.98;;
35442;SDS011;21561;55.654;37.592;2023-02-02T07:20:15;30.75;;;13.18;;
35442;SDS011;21561;55.654;37.592;2023-02-02T07:22:42;33.08;;;14.57;;
35442;SDS011;21561;55.654;37.592;2023-02-02T07:25:09;32.25;;;12.70;;
35442;SDS011;21561;55.654;37.592;2023-02-02T07:27:36;31.23;;;13.07;;
35442;SDS011;21561;55.654;37.592;2023-02-02T07:30:03;41.30;;;14.13;;
35442;SDS011;21561;55.654;37.592;2023-02-02T07:32:30;33.97;;;13.18;;
35442;SDS011;21561;55.654;37.592;2023-02-02T07:34:57;30.58;;;12.73;;
35442;SDS011;21561;55.654;37.592;2023-02-02T07:37:24;33.90;;;13.73;;
35442;SDS011;21561;55.654;37.592;2023-02-02T07:39:51;31.20;;;12.73;;
35442;SDS011;21561;55.654;37.592;2023-02-02T07:42:17;33.70;;;14.05;;
35442;SDS011;21561;55.654;37.592;2023-02-02T07:44:44;33.95;;;14.45;;
35442;SDS011;21561;55.654;37.592;2023-02-02T07:47:11;33.08;;;12.38;;
35442;SDS011;21561;55.654;37.592;2023-02-02T07:49:38;31.45;;;12.95;;
35442;SDS011;21561;55.654;37.592;2023-02-02T07:52:05;30.15;;;12.70;;
35442;SDS011;21561;55.654;37.592;2023-02-02T07:54:32;35.90;;;13.15;;
35442;SDS011;21561;55.654;37.592;2023-02-02T07:57:00;33.63;;;12.95;;
35442;SDS011;21561;55.654;37.592;2023-02-02T07:59:27;31.95;;;12.43;;
35442;SDS011;21561;55.654;37.592;2023-02-02T08:01:57;30.23;;;12.68;;
35442;SDS011;21561;55.654;37.592;2023-02-02T08:04:24;30.80;;;12.80;;
35442;SDS011;21561;55.654;37.592;2023-02-02T08:06:52;31.15;;;11.93;;
35442;SDS011;21561;55.654;37.592;2023-02-02T08:09:18;32.22;;;13.15;;
35442;SDS011;21561;55.654;37.592;2023-02-02T08:11:45;30.83;;;12.32;;
35442;SDS011;21561;55.654;37.592;2023-02-02T08:14:13;31.15;;;13.38;;
35442;SDS011;21561;55.654;37.592;2023-02-02T08:16:40;31.55;;;12.43;;
35442;SDS011;21561;55.654;37.592;2023-02-02T08:19:08;31.60;;;12.30;;
35442;SDS011;21561;55.654;37.592;2023-02-02T08:21:36;30.27;;;12.20;;
35442;SDS011;21561;55.654;37.592;2023-02-02T08:24:03;32.67;;;12.25;;
35442;SDS011;21561;55.654;37.592;2023-02-02T08:26:30;33.13;;;13.18;;
35442;SDS011;21561;55.654;37.592;2023-02-02T08:28:58;27.67;;;10.60;;
35442;SDS011;21561;55.654;37.592;2023-02-02T08:31:29;27.85;;;10.82;;
35442;SDS011;21561;55.654;37.592;2023-02-02T08:33:58;28.58;;;12.00;;
35442;SDS011;21561;55.654;37.592;2023-02-02T08:36:26;31.95;;;12.50;;
35442;SDS011;21561;55.654;37.592;2023-02-02T08:38:54;29.80;;;11.68;;
35442;SDS011;21561;55.654;37.592;2023-02-02T08:41:22;29.40;;;10.50;;
35442;SDS011;21561;55.654;37.592;2023-02-02T08:43:49;30.65;;;12.43;;
35442;SDS011;21561;55.654;37.592;2023-02-02T08:46:17;29.90;;;12.20;;
35442;SDS011;21561;55.654;37.592;2023-02-02T08:48:46;26.45;;;10.80;;
35442;SDS011;21561;55.654;37.592;2023-02-02T08:51:15;30.90;;;11.75;;
35442;SDS011;21561;55.654;37.592;2023-02-02T08:53:44;27.13;;;11.82;;
35442;SDS011;21561;55.654;37.592;2023-02-02T08:56:12;27.75;;;12.23;;
35442;SDS011;21561;55.654;37.592;2023-02-02T08:58:44;27.48;;;10.98;;
35442;SDS011;21561;55.654;37.592;2023-02-02T09:03:41;27.98;;;10.73;;
35442;SDS011;21561;55.654;37.592;2023-02-02T09:06:09;26.13;;;10.82;;
35442;SDS011;21561;55.654;37.592;2023-02-02T09:08:38;26.65;;;10.18;;
35442;SDS011;21561;55.654;37.592;2023-02-02T09:11:08;29.67;;;11.82;;
35442;SDS011;21561;55.654;37.592;2023-02-02T09:13:39;25.67;;;10.52;;
35442;SDS011;21561;55.654;37.592;2023-02-02T09:16:08;27.25;;;11.05;;
35442;SDS011;21561;55.654;37.592;2023-02-02T09:18:36;28.92;;;11.68;;
35442;SDS011;21561;55.654;37.592;2023-02-02T09:21:04;32.80;;;11.77;;
35442;SDS011;21561;55.654;37.592;2023-02-02T09:23:34;27.02;;;10.95;;
35442;SDS011;21561;55.654;37.592;2023-02-02T09:26:13;28.83;;;11.15;;
35442;SDS011;21561;55.654;37.592;2023-02-02T09:28:46;28.50;;;11.65;;
35442;SDS011;21561;55.654;37.592;2023-02-02T09:31:14;29.20;;;11.50;;
35442;SDS011;21561;55.654;37.592;2023-02-02T09:33:41;30.70;;;11.57;;
35442;SDS011;21561;55.654;37.592;2023-02-02T09:36:12;31.27;;;11.32;;
35442;SDS011;21561;55.654;37.592;2023-02-02T09:38:44;30.90;;;12.27;;
35442;SDS011;21561;55.654;37.592;2023-02-02T09:41:25;27.10;;;10.88;;
35442;SDS011;21561;55.654;37.592;2023-02-02T09:44:07;29.13;;;11.40;;
35442;SDS011;21561;55.654;37.592;2023-02-02T09:52:07;31.55;;;11.00;;
35442;SDS011;21561;55.654;37.592;2023-02-02T09:54:41;29.33;;;11.55;;
35442;SDS011;21561;55.654;37.592;2023-02-02T09:57:23;28.25;;;11.43;;
35442;SDS011;21561;55.654;37.592;2023-02-02T09:59:54;30.63;;;12.20;;
35442;SDS011;21561;55.654;37.592;2023-02-02T10:02:29;30.70;;;12.27;;
35442;SDS011;21561;55.654;37.592;2023-02-02T10:05:10;28.65;;;11.45;;
35442;SDS011;21561;55.654;37.592;2023-02-02T10:07:42;29.52;;;11.90;;
35442;SDS011;21561;55.654;37.592;2023-02-02T10:10:17;30.13;;;12.40;;
35442;SDS011;21561;55.654;37.592;2023-02-02T10:18:10;27.75;;;12.40;;
35442;SDS011;21561;55.654;37.592;2023-02-02T10:21:05;29.70;;;12.23;;
35442;SDS011;21561;55.654;37.592;2023-02-02T10:23:36;28.92;;;12.32;;
35442;SDS011;21561;55.654;37.592;2023-02-02T10:26:18;29.27;;;12.15;;
35442;SDS011;21561;55.654;37.592;2023-02-02T10:28:53;27.80;;;12.10;;
35442;SDS011;21561;55.654;37.592;2023-02-02T10:34:43;27.95;;;12.55;;
35442;SDS011;21561;55.654;37.592;2023-02-02T10:46:13;32.65;;;13.57;;
35442;SDS011;21561;55.654;37.592;2023-02-02T10:48:45;31.75;;;13.40;;
35442;SDS011;21561;55.654;37.592;2023-02-02T10:51:19;31.08;;;13.73;;
35442;SDS011;21561;55.654;37.592;2023-02-02T10:53:57;30.93;;;13.00;;
35442;SDS011;21561;55.654;37.592;2023-02-02T10:56:35;32.47;;;15.00;;
35442;SDS011;21561;55.654;37.592;2023-02-02T10:59:10;32.40;;;14.18;;
35442;SDS011;21561;55.654;37.592;2023-02-02T11:01:50;29.60;;;12.98;;
35442;SDS011;21561;55.654;37.592;2023-02-02T11:04:17;30.38;;;13.80;;
35442;SDS011;21561;55.654;37.592;2023-02-02T11:07:05;30.55;;;13.10;;
35442;SDS011;21561;55.654;37.592;2023-02-02T11:09:37;28.30;;;12.18;;
35442;SDS011;21561;55.654;37.592;2023-02-02T11:12:12;28.73;;;12.35;;
35442;SDS011;21561;55.654;37.592;2023-02-02T11:14:48;30.50;;;12.32;;
35442;SDS011;21561;55.654;37.592;2023-02-02T11:17:23;29.40;;;12.77;;
35442;SDS011;21561;55.654;37.592;2023-02-02T11:19:51;29.92;;;12.20;;
35442;SDS011;21561;55.654;37.592;2023-02-02T11:24:56;28.30;;;11.80;;
35442;SDS011;21561;55.654;37.592;2023-02-02T11:27:26;29.55;;;11.48;;
35442;SDS011;21561;55.654;37.592;2023-02-02T11:29:57;31.13;;;13.38;;
35442;SDS011;21561;55.654;37.592;2023-02-02T11:37:31;28.95;;;11.77;;
35442;SDS011;21561;55.654;37.592;2023-02-02T11:42:54;28.80;;;12.63;;
35442;SDS011;21561;55.654;37.592;2023-02-02T11:47:59;27.73;;;11.90;;
35442;SDS011;21561;55.654;37.592;2023-02-02T11:50:43;29.10;;;12.20;;
35442;SDS011;21561;55.654;37.592;2023-02-02T11:54:00;29.50;;;12.13;;
35442;SDS011;21561;55.654;37.592;2023-02-02T11:56:20;31.23;;;13.00;;
35442;SDS011;21561;55.654;37.592;2023-02-02T11:58:51;33.50;;;12.38;;
35442;SDS011;21561;55.654;37.592;2023-02-02T12:01:25;31.47;;;13.10;;
35442;SDS011;21561;55.654;37.592;2023-02-02T12:03:55;31.55;;;13.55;;
35442;SDS011;21561;55.654;37.592;2023-02-02T12:06:25;29.80;;;12.07;;
35442;SDS011;21561;55.654;37.592;2023-02-02T12:09:00;28.27;;;12.63;;
35442;SDS011;21561;55.654;37.592;2023-02-02T12:22:23;29.20;;;12.48;;
35442;SDS011;21561;55.654;37.592;2023-02-02T12:44:31;34.35;;;12.15;;
35442;SDS011;21561;55.654;37.592;2023-02-02T12:47:37;32.08;;;12.00;;
35442;SDS011;21561;55.654;37.592;2023-02-02T12:58:44;31.35;;;12.70;;
35442;SDS011;21561;55.654;37.592;2023-02-02T13:09:25;36.28;;;14.15;;
35442;SDS011;21561;55.654;37.592;2023-02-02T13:11:54;34.40;;;13.50;;
35442;SDS011;21561;55.654;37.592;2023-02-02T13:14:50;36.22;;;14.38;;
35442;SDS011;21561;55.654;37.592;2023-02-02T13:17:24;33.75;;;13.73;;
35442;SDS011;21561;55.654;37.592;2023-02-02T13:19:56;35.50;;;14.60;;
35442;SDS011;21561;55.654;37.592;2023-02-02T13:22:33;35.05;;;14.13;;
35442;SDS011;21561;55.654;37.592;2023-02-02T13:25:05;33.92;;;14.88;;
35442;SDS011;21561;55.654;37.592;2023-02-02T13:27:41;33.63;;;13.88;;
35442;SDS011;21561;55.654;37.592;2023-02-02T13:30:16;32.28;;;14.00;;
35442;SDS011;21561;55.654;37.592;2023-02-02T13:32:52;35.88;;;13.98;;
35442;SDS011;21561;55.654;37.592;2023-02-02T13:35:26;34.28;;;14.57;;
35442;SDS011;21561;55.654;37.592;2023-02-02T13:38:14;38.63;;;14.60;;
35442;SDS011;21561;55.654;37.592;2023-02-02T13:40:46;34.22;;;14.55;;
35442;SDS011;21561;55.654;37.592;2023-02-02T13:45:56;34.88;;;13.25;;
35442;SDS011;21561;55.654;37.592;2023-02-02T13:48:39;34.28;;;14.43;;
35442;SDS011;21561;55.654;37.592;2023-02-02T14:00:17;34.72;;;13.95;;
35442;SDS011;21561;55.654;37.592;2023-02-02T14:02:43;38.67;;;15.13;;
35442;SDS011;21561;55.654;37.592;2023-02-02T14:05:19;43.88;;;16.88;;
35442;SDS011;21561;55.654;37.592;2023-02-02T14:07:47;38.08;;;15.98;;
35442;SDS011;21561;55.654;37.592;2023-02-02T14:10:31;37.47;;;15.43;;
35442;SDS011;21561;55.654;37.592;2023-02-02T14:13:05;40.60;;;16.50;;
35442;SDS011;21561;55.654;37.592;2023-02-02T14:16:03;35.73;;;15.53;;
35442;SDS011;21561;55.654;37.592;2023-02-02T14:26:54;42.00;;;16.67;;
35442;SDS011;21561;55.654;37.592;2023-02-02T14:45:29;39.60;;;17.00;;
35442;SDS011;21561;55.654;37.592;2023-02-02T14:55:51;40.13;;;16.10;;
35442;SDS011;21561;55.654;37.592;2023-02-02T14:58:33;39.13;;;16.20;;
35442;SDS011;21561;55.654;37.592;2023-02-02T15:01:45;44.47;;;16.90;;
35442;SDS011;21561;55.654;37.592;2023-02-02T15:06:33;38.33;;;15.68;;
35442;SDS011;21561;55.654;37.592;2023-02-02T15:17:13;40.63;;;17.25;;
35442;SDS011;21561;55.654;37.592;2023-02-02T15:19:47;39.08;;;16.75;;
35442;SDS011;21561;55.654;37.592;2023-02-02T15:33:43;41.92;;;17.63;;
35442;SDS011;21561;55.654;37.592;2023-02-02T15:36:16;41.95;;;17.45;;
35442;SDS011;21561;55.654;37.592;2023-02-02T15:38:47;42.55;;;18.77;;
35442;SDS011;21561;55.654;37.592;2023-02-02T15:41:19;36.30;;;17.23;;
35442;SDS011;21561;55.654;37.592;2023-02-02T15:43:49;40.03;;;17.33;;
35442;SDS011;21561;55.654;37.592;2023-02-02T15:46:22;40.22;;;17.50;;
35442;SDS011;21561;55.654;37.592;2023-02-02T15:52:00;40.10;;;16.77;;
35442;SDS011;21561;55.654;37.592;2023-02-02T15:54:35;38.42;;;16.60;;
35442;SDS011;21561;55.654;37.592;2023-02-02T15:57:38;39.30;;;16.02;;
35442;SDS011;21561;55.654;37.592;2023-02-02T16:00:00;41.17;;;17.42;;
35442;SDS011;21561;55.654;37.592;2023-02-02T16:02:48;41.33;;;18.45;;
35442;SDS011;21561;55.654;37.592;2023-02-02T16:08:13;43.13;;;18.67;;
35442;SDS011;21561;55.654;37.592;2023-02-02T16:10:45;39.90;;;16.98;;
35442;SDS011;21561;55.654;37.592;2023-02-02T16:13:25;36.00;;;15.85;;
35442;SDS011;21561;55.654;37.592;2023-02-02T16:15:58;39.95;;;17.95;;
35442;SDS011;21561;55.654;37.592;2023-02-02T16:18:27;41.83;;;17.10;;
35442;SDS011;21561;55.654;37.592;2023-02-02T16:20:54;40.08;;;17.38;;
35442;SDS011;21561;55.654;37.592;2023-02-02T16:23:32;39.42;;;18.90;;
35442;SDS011;21561;55.654;37.592;2023-02-02T16:26:02;41.15;;;17.92;;
35442;SDS011;21561;55.654;37.592;2023-02-02T16:28:31;41.05;;;17.67;;
35442;SDS011;21561;55.654;37.592;2023-02-02T16:30:59;39.70;;;17.85;;
35442;SDS011;21561;55.654;37.592;2023-02-02T16:33:35;40.13;;;17.48;;
35442;SDS011;21561;55.654;37.592;2023-02-02T16:38:52;42.50;;;18.77;;
35442;SDS011;21561;55.654;37.592;2023-02-02T16:41:24;39.08;;;17.38;;
35442;SDS011;21561;55.654;37.592;2023-02-02T16:47:05;40.17;;;17.30;;
35442;SDS011;21561;55.654;37.592;2023-02-02T16:49:33;40.65;;;17.02;;
35442;SDS011;21561;55.654;37.592;2023-02-02T16:52:09;38.03;;;16.48;;
35442;SDS011;21561;55.654;37.592;2023-02-02T16:54:37;37.50;;;16.45;;
35442;SDS011;21561;55.654;37.592;2023-02-02T16:57:10;35.15;;;15.70;;
35442;SDS011;21561;55.654;37.592;2023-02-02T16:59:48;37.65;;;17.83;;
35442;SDS011;21561;55.654;37.592;2023-02-02T17:02:31;39.10;;;17.45;;
35442;SDS011;21561;55.654;37.592;2023-02-02T17:05:14;42.78;;;18.33;;
35442;SDS011;21561;55.654;37.592;2023-02-02T17:07:49;36.80;;;16.90;;
35442;SDS011;21561;55.654;37.592;2023-02-02T17:10:41;40.25;;;17.30;;
35442;SDS011;21561;55.654;37.592;2023-02-02T17:15:57;40.92;;;16.70;;
35442;SDS011;21561;55.654;37.592;2023-02-02T17:18:25;39.40;;;16.73;;
35442;SDS011;21561;55.654;37.592;2023-02-02T17:20:53;38.13;;;15.45;;
35442;SDS011;21561;55.654;37.592;2023-02-02T17:23:24;38.90;;;18.33;;
35442;SDS011;21561;55.654;37.592;2023-02-02T17:25:54;37.28;;;17.35;;
35442;SDS011;21561;55.654;37.592;2023-02-02T17:28:22;39.88;;;17.00;;
35442;SDS011;21561;55.654;37.592;2023-02-02T17:31:12;36.22;;;16.08;;
35442;SDS011;21561;55.654;37.592;2023-02-02T17:33:39;40.70;;;18.08;;
35442;SDS011;21561;55.654;37.592;2023-02-02T17:36:08;37.90;;;16.38;;
35442;SDS011;21561;55.654;37.592;2023-02-02T17:38:38;36.78;;;16.13;;
35442;SDS011;21561;55.654;37.592;2023-02-02T17:41:05;38.78;;;16.77;;
35442;SDS011;21561;55.654;37.592;2023-02-02T17:43:32;44.22;;;16.05;;
35442;SDS011;21561;55.654;37.592;2023-02-02T17:45:59;37.70;;;15.90;;
35442;SDS011;21561;55.654;37.592;2023-02-02T17:48:28;41.45;;;17.65;;